Terminal Aerodrome Forecast
Issued by NWS Rapid City, SD

Home | Current Version | Previous Version | Graphics & Text | Print | Product List | Glossary On
Versions: 1 2 3 4 5 6 7 8 9 10 11 12 13 14 15 16 17 18 19 20 21 22 23 24 25
424
FTUS43 KUNR 211120
TAFRAP
TAF
KRAP 211120Z 2112/2212 16010KT P6SM BKN020
      TEMPO 2112/2114 OVC009
     FM211500 16017KT P6SM OVC025
     FM211700 17020G30KT P6SM BKN050 OVC100
     FM220300 15011KT P6SM OVC015
     FM221000 20007KT P6SM SCT150=

USA.gov is the U.S. government's official web portal to all federal, state and local government web resources and services.